Time;durP1;ratioP1;P1;durP2;ratioP2;P2;SDS_P1;SDS_P2;PMS_P1;PMS_P2;Temp;Humidity;BMP_temperature;BMP_pressure;BME280_temperature;BME280_humidity;BME280_pressure;Samples;Min_cycle;Max_cycle;Signal;HPM_P1;HPM_P2
2021/04/19 00:01:02;;;;;;;24.83;20.40;;;7.90;97.10;;;;;;5049937;28;20458;-88
2021/04/19 00:03:56;;;;;;;29.03;21.50;;;7.90;96.40;;;;;;5047602;28;20973;-88
2021/04/19 00:06:32;;;;;;;28.87;19.47;;;8.00;97.00;;;;;;5055397;28;20474;-88
2021/04/19 00:09:06;;;;;;;26.80;20.83;;;7.90;96.20;;;;;;5052211;28;20629;-88
2021/04/19 00:11:54;;;;;;;24.17;19.90;;;7.90;95.50;;;;;;5048738;28;20456;-87
2021/04/19 00:14:35;;;;;;;27.60;20.47;;;7.90;96.40;;;;;;5048404;28;20533;-88
2021/04/19 00:22:55;;;;;;;24.90;19.90;;;7.90;96.10;;;;;;5050505;28;20486;-88
2021/04/19 00:28:17;;;;;;;27.77;21.90;;;7.90;95.20;;;;;;5051617;28;20504;-87
2021/04/19 00:30:50;;;;;;;30.37;21.13;;;7.90;94.10;;;;;;5053103;28;20461;-86
2021/04/19 00:33:35;;;;;;;26.80;20.50;;;7.90;94.30;;;;;;5051049;28;21017;-87
2021/04/19 00:36:14;;;;;;;28.17;22.00;;;8.00;94.10;;;;;;5050704;28;20471;-88
2021/04/19 00:38:54;;;;;;;24.80;19.93;;;7.90;95.40;;;;;;5050067;28;20513;-88
2021/04/19 00:41:34;;;;;;;29.50;22.00;;;7.90;97.10;;;;;;5046867;28;20479;-89
2021/04/19 00:44:09;;;;;;;29.73;21.60;;;7.80;99.90;;;;;;5055836;28;20946;-88
2021/04/19 00:46:56;;;;;;;28.50;21.13;;;7.80;99.40;;;;;;5057933;28;20449;-88
2021/04/19 00:49:36;;;;;;;33.00;23.17;;;7.80;99.90;;;;;;5073556;28;20456;-88
2021/04/19 00:52:18;;;;;;;26.93;21.90;;;7.90;99.90;;;;;;5064665;28;20517;-89
2021/04/19 00:54:59;;;;;;;28.40;21.77;;;7.90;99.90;;;;;;5071773;28;20461;-89
2021/04/19 00:57:55;;;;;;;31.03;23.10;;;7.90;99.90;;;;;;5055845;28;20498;-89
2021/04/19 01:00:34;;;;;;;26.53;23.07;;;7.90;99.90;;;;;;5059196;28;20522;-89
2021/04/19 01:03:23;;;;;;;29.33;22.53;;;7.80;99.90;;;;;;5053053;28;20454;-88
2021/04/19 01:06:00;;;;;;;29.80;22.50;;;7.80;99.90;;;;;;5052470;28;20558;-87
2021/04/19 01:08:47;;;;;;;28.63;22.50;;;7.80;99.90;;;;;;5048738;28;20452;-89
2021/04/19 01:14:23;;;;;;;31.23;22.60;;;7.90;98.70;;;;;;5049399;28;20538;-89
2021/04/19 01:16:58;;;;;;;26.93;21.97;;;8.00;97.80;;;;;;5047109;28;20506;-90
2021/04/19 01:19:34;;;;;;;28.90;22.90;;;8.00;96.70;;;;;;5046914;28;20581;-88
2021/04/19 01:22:22;;;;;;;27.33;22.33;;;7.90;96.00;;;;;;5051360;28;20463;-89
2021/04/19 01:27:44;;;;;;;29.63;23.10;;;7.90;95.90;;;;;;5055699;28;20531;-88
2021/04/19 01:30:26;;;;;;;30.90;23.70;;;7.90;96.20;;;;;;5065684;28;20474;-90
2021/04/19 01:35:58;;;;;;;30.53;23.80;;;7.80;99.60;;;;;;5060263;28;20481;-89
2021/04/19 01:41:32;;;;;;;31.70;25.80;;;7.90;97.90;;;;;;5057824;28;20444;-88
2021/04/19 01:44:13;;;;;;;29.17;25.23;;;7.80;96.10;;;;;;5064169;28;20444;-89
2021/04/19 01:46:49;;;;;;;37.10;25.40;;;7.80;96.90;;;;;;5068741;28;20439;-88
2021/04/19 01:52:30;;;;;;;31.70;23.50;;;8.00;97.90;;;;;;5052690;28;20553;-88
2021/04/19 01:55:25;;;;;;;29.37;23.60;;;7.80;98.50;;;;;;5052761;28;20498;-88
2021/04/19 01:58:09;;;;;;;31.47;23.67;;;7.70;98.20;;;;;;5060952;28;20469;-89
2021/04/19 02:00:52;;;;;;;28.97;23.37;;;7.80;99.90;;;;;;5053731;28;20450;-88
2021/04/19 02:03:46;;;;;;;30.87;22.67;;;7.60;99.90;;;;;;5059421;28;20459;-88
2021/04/19 02:12:26;;;;;;;24.87;20.33;;;7.50;99.90;;;;;;5071140;28;20513;-88
2021/04/19 02:15:12;;;;;;;26.40;21.60;;;7.50;99.90;;;;;;5055440;28;20482;-88
2021/04/19 02:18:00;;;;;;;24.50;20.87;;;7.50;99.90;;;;;;5070143;28;20441;-88
2021/04/19 02:23:43;;;;;;;28.00;21.73;;;7.50;99.90;;;;;;5062892;28;20476;-88
2021/04/19 02:26:30;;;;;;;28.77;23.67;;;7.40;99.90;;;;;;5064465;28;20479;-90
2021/04/19 02:29:13;;;;;;;29.37;23.20;;;7.40;99.90;;;;;;5059379;28;20453;-89
2021/04/19 02:31:57;;;;;;;27.60;22.40;;;7.40;99.90;;;;;;5057568;28;20457;-89
2021/04/19 02:34:38;;;;;;;27.80;22.50;;;7.40;99.90;;;;;;5053940;28;20523;-89
2021/04/19 02:37:19;;;;;;;33.10;25.73;;;7.40;99.90;;;;;;5057967;28;20444;-90
2021/04/19 02:39:59;;;;;;;32.97;25.20;;;7.40;99.90;;;;;;5067425;28;20455;-88
2021/04/19 02:42:40;;;;;;;32.43;24.03;;;7.40;99.90;;;;;;5059883;28;20444;-89
2021/04/19 02:45:23;;;;;;;30.17;24.43;;;7.40;99.90;;;;;;5063921;28;20458;-91
2021/04/19 02:48:04;;;;;;;27.77;22.17;;;7.40;99.90;;;;;;5075030;28;20448;-89
2021/04/19 02:53:28;;;;;;;35.07;24.63;;;7.60;99.90;;;;;;5063064;28;20511;-90
2021/04/19 02:59:00;;;;;;;30.53;24.00;;;7.40;99.90;;;;;;5075848;28;20451;-89
2021/04/19 03:02:03;;;;;;;29.93;24.27;;;7.30;99.90;;;;;;5075458;28;20422;-89
2021/04/19 03:04:47;;;;;;;28.27;24.60;;;7.20;99.90;;;;;;5065050;28;20449;-88
2021/04/19 03:07:40;;;;;;;31.27;23.80;;;7.30;99.90;;;;;;5075922;28;20451;-88
2021/04/19 03:10:27;;;;;;;30.17;24.90;;;7.20;99.90;;;;;;5077196;28;20578;-89
2021/04/19 03:13:15;;;;;;;32.93;23.70;;;7.20;99.90;;;;;;5076128;28;20465;-88
2021/04/19 03:16:11;;;;;;;35.13;24.90;;;7.20;99.90;;;;;;5068860;28;20476;-88
2021/04/19 03:18:49;;;;;;;29.17;24.17;;;7.20;99.90;;;;;;5066109;28;20457;-89
2021/04/19 03:21:39;;;;;;;35.33;25.20;;;7.30;99.90;;;;;;5062547;28;20453;-89
2021/04/19 03:24:30;;;;;;;32.40;25.53;;;7.40;99.90;;;;;;5059410;28;20561;-89
2021/04/19 03:27:19;;;;;;;33.17;25.17;;;7.30;99.90;;;;;;5055618;28;20520;-89
2021/04/19 03:29:59;;;;;;;31.97;24.60;;;7.30;99.90;;;;;;5054563;28;20535;-90
2021/04/19 03:38:31;;;;;;;31.73;23.10;;;7.20;99.90;;;;;;5056457;28;20477;-89
2021/04/19 03:41:27;;;;;;;30.43;23.10;;;7.10;99.90;;;;;;5054256;28;20458;-89
2021/04/19 03:44:04;;;;;;;30.40;23.07;;;7.20;99.90;;;;;;5046070;28;20467;-89
2021/04/19 03:46:44;;;;;;;35.03;24.20;;;7.20;99.90;;;;;;5046795;28;20822;-89
2021/04/19 03:49:28;;;;;;;28.87;21.20;;;7.20;99.90;;;;;;5049152;28;20787;-88
2021/04/19 03:52:17;;;;;;;34.57;25.13;;;7.20;99.90;;;;;;5050291;28;20442;-88
2021/04/19 03:58:11;;;;;;;31.03;23.50;;;7.20;99.90;;;;;;5046507;28;21265;-88
2021/04/19 04:00:55;;;;;;;28.57;24.87;;;7.10;99.90;;;;;;5060330;28;20446;-88
2021/04/19 04:03:37;;;;;;;29.73;22.13;;;7.10;99.90;;;;;;5059467;28;20955;-88
2021/04/19 04:09:17;;;;;;;25.07;22.33;;;7.00;99.90;;;;;;5049187;28;20457;-88
2021/04/19 04:11:58;;;;;;;32.53;24.20;;;7.00;99.90;;;;;;5056416;28;20483;-88
2021/04/19 04:14:40;;;;;;;31.50;23.33;;;6.90;99.90;;;;;;5047499;28;20464;-89
2021/04/19 04:17:26;;;;;;;30.53;23.77;;;6.90;99.90;;;;;;5057941;28;20482;-87
2021/04/19 04:20:06;;;;;;;31.53;21.57;;;7.00;99.90;;;;;;5062183;28;20472;-88
2021/04/19 04:22:59;;;;;;;33.20;23.33;;;7.00;99.90;;;;;;5047369;28;20944;-88
2021/04/19 04:25:55;;;;;;;30.13;23.07;;;7.00;99.90;;;;;;5056309;28;20506;-87
2021/04/19 04:37:10;;;;;;;32.57;24.07;;;7.10;99.90;;;;;;5070224;28;20491;-88
2021/04/19 04:39:52;;;;;;;33.40;24.73;;;7.10;99.90;;;;;;5061074;28;20457;-88
2021/04/19 04:43:02;;;;;;;32.70;23.60;;;7.10;99.90;;;;;;5054295;28;20451;-89
2021/04/19 04:45:39;;;;;;;27.03;22.80;;;7.20;99.90;;;;;;5059912;28;20522;-90
2021/04/19 04:48:24;;;;;;;30.30;22.03;;;7.10;99.90;;;;;;5053211;28;20456;-89
2021/04/19 04:56:52;;;;;;;28.40;21.80;;;7.20;99.90;;;;;;5050871;28;20490;-88
2021/04/19 05:05:21;;;;;;;29.43;24.17;;;7.20;99.90;;;;;;5070310;28;20510;-88
2021/04/19 05:08:05;;;;;;;30.13;22.43;;;7.30;99.90;;;;;;5063651;28;20479;-88
2021/04/19 05:10:37;;;;;;;28.20;21.33;;;7.30;99.90;;;;;;5054726;28;20449;-88
2021/04/19 05:13:32;;;;;;;26.47;22.30;;;7.30;99.90;;;;;;5072873;28;20441;-88
2021/04/19 05:16:15;;;;;;;31.53;23.60;;;7.40;99.90;;;;;;5060478;28;20463;-89
2021/04/19 05:18:51;;;;;;;30.70;22.27;;;7.40;99.90;;;;;;5063662;28;20460;-88
2021/04/19 05:21:32;;;;;;;33.73;22.57;;;7.40;99.90;;;;;;5055052;28;20969;-89
2021/04/19 05:27:11;;;;;;;31.27;22.87;;;7.40;99.90;;;;;;5053044;28;20449;-89
2021/04/19 05:32:40;;;;;;;30.20;24.23;;;7.50;99.90;;;;;;5053452;28;20447;-88
2021/04/19 05:35:21;;;;;;;25.40;20.90;;;7.60;99.90;;;;;;5054385;28;20451;-88
2021/04/19 06:11:06;;;;;;;26.03;21.27;;;8.10;97.30;;;;;;5056951;28;20764;-90
2021/04/19 06:19:23;;;;;;;26.73;22.30;;;8.40;91.90;;;;;;5070887;28;20443;-87
2021/04/19 06:22:15;;;;;;;24.90;21.10;;;8.70;93.80;;;;;;5061855;28;20469;-88
2021/04/19 06:24:58;;;;;;;28.00;21.30;;;8.80;91.50;;;;;;5067056;28;20429;-90
2021/04/19 06:30:40;;;;;;;25.20;20.33;;;8.60;91.40;;;;;;5055683;28;20453;-89
2021/04/19 06:36:18;;;;;;;26.53;21.13;;;8.80;91.20;;;;;;5061721;28;20463;-88
2021/04/19 06:41:49;;;;;;;24.20;21.10;;;9.00;90.80;;;;;;5057004;28;20454;-88
2021/04/19 06:47:29;;;;;;;26.57;21.40;;;9.30;88.50;;;;;;5047269;28;20532;-88
2021/04/19 06:50:17;;;;;;;26.53;21.03;;;9.50;88.30;;;;;;5070319;28;20508;-91
2021/04/19 06:52:57;;;;;;;27.10;21.97;;;9.70;85.10;;;;;;5066308;28;20463;-87
2021/04/19 06:58:32;;;;;;;28.93;22.57;;;9.40;84.70;;;;;;5061101;28;20458;-88
2021/04/19 07:01:41;;;;;;;26.10;22.17;;;9.50;85.60;;;;;;5059692;28;20472;-90
2021/04/19 07:08:00;;;;;;;26.87;21.03;;;9.80;84.40;;;;;;5061328;28;20529;-83
2021/04/19 07:10:36;;;;;;;25.35;22.05;;;9.90;84.00;;;;;;5060905;28;20444;-88
2021/04/19 07:13:14;;;;;;;26.77;22.93;;;10.00;81.20;;;;;;5056152;28;20199;-81
2021/04/19 07:15:52;;;;;;;26.40;22.80;;;10.10;80.20;;;;;;5057197;28;20514;-84
2021/04/19 07:18:28;;;;;;;28.07;22.97;;;10.60;80.80;;;;;;5060794;28;20452;-79
2021/04/19 07:23:52;;;;;;;26.67;22.33;;;11.00;79.10;;;;;;5057881;28;20477;-79
2021/04/19 07:26:27;;;;;;;27.00;21.97;;;11.20;77.10;;;;;;5064854;28;20454;-80
2021/04/19 07:29:01;;;;;;;27.02;23.63;;;11.60;75.90;;;;;;5063677;28;20527;-83
2021/04/19 07:31:58;;;;;;;26.10;23.40;;;11.90;76.10;;;;;;5064314;28;20206;-81
2021/04/19 07:35:01;;;;;;;28.90;25.83;;;11.50;73.80;;;;;;5067121;28;20482;-87
2021/04/19 07:37:39;;;;;;;27.87;24.00;;;11.60;74.70;;;;;;5072162;28;20484;-86
2021/04/19 07:40:47;;;;;;;25.03;22.43;;;11.70;75.20;;;;;;5070205;28;20560;-87
2021/04/19 07:43:40;;;;;;;28.53;23.13;;;11.10;74.70;;;;;;5061005;28;20560;-87
2021/04/19 07:46:18;;;;;;;29.23;26.10;;;10.60;75.60;;;;;;5062802;28;20458;-87
2021/04/19 07:48:59;;;;;;;28.67;25.63;;;10.70;76.20;;;;;;5063272;28;20503;-79
2021/04/19 07:51:37;;;;;;;32.23;26.20;;;10.50;75.70;;;;;;5059859;28;20452;-80
2021/04/19 07:54:25;;;;;;;28.80;25.57;;;10.70;76.10;;;;;;5064528;28;20534;-83
2021/04/19 07:57:13;;;;;;;29.03;26.00;;;10.20;77.10;;;;;;5060301;28;20496;-80
2021/04/19 07:59:48;;;;;;;29.13;26.03;;;10.00;78.10;;;;;;5052261;28;20477;-82
2021/04/19 08:02:25;;;;;;;32.90;26.50;;;10.20;77.60;;;;;;5059452;28;20508;-80
2021/04/19 08:05:04;;;;;;;29.60;26.20;;;10.40;76.30;;;;;;5056150;28;20805;-84
2021/04/19 08:07:40;;;;;;;32.77;26.47;;;10.70;76.10;;;;;;5059238;28;20461;-86
2021/04/19 08:10:15;;;;;;;34.33;29.10;;;10.80;75.60;;;;;;5058815;28;20446;-83
2021/04/19 08:12:52;;;;;;;31.90;26.70;;;11.00;75.80;;;;;;5056893;28;20476;-88
2021/04/19 08:15:27;;;;;;;29.73;26.10;;;11.00;75.60;;;;;;5062301;28;20469;-84
2021/04/19 08:18:13;;;;;;;30.30;26.83;;;11.00;75.00;;;;;;5066276;28;20774;-85
2021/04/19 08:20:57;;;;;;;35.27;29.07;;;10.90;74.90;;;;;;5057554;28;20453;-86
2021/04/19 08:23:39;;;;;;;31.03;27.77;;;10.80;75.00;;;;;;5105816;22;21055;-86
2021/04/19 08:26:15;;;;;;;31.57;28.37;;;11.00;74.80;;;;;;5081400;28;20923;-84
2021/04/19 08:28:51;;;;;;;30.77;27.07;;;10.70;74.30;;;;;;5079946;28;20457;-82
2021/04/19 08:31:26;;;;;;;33.60;28.93;;;10.90;75.30;;;;;;5087571;28;20780;-88
2021/04/19 08:34:01;;;;;;;36.80;29.00;;;10.60;74.40;;;;;;5092690;28;20512;-84
2021/04/19 08:36:37;;;;;;;32.00;27.40;;;10.90;75.60;;;;;;5074092;28;20523;-81
2021/04/19 08:39:12;;;;;;;33.63;30.07;;;11.00;75.80;;;;;;5070786;28;20446;-80
2021/04/19 08:41:56;;;;;;;32.60;29.13;;;11.00;75.40;;;;;;5072098;28;20540;-80
2021/04/19 08:44:29;;;;;;;36.50;29.00;;;11.00;74.80;;;;;;5084127;28;20444;-80
2021/04/19 08:47:03;;;;;;;35.47;31.65;;;11.10;74.60;;;;;;5093656;28;20955;-89
2021/04/19 08:49:43;;;;;;;36.67;32.95;;;11.20;74.70;;;;;;5082305;28;20464;-86
2021/04/19 08:52:25;;;;;;;32.95;29.40;;;11.20;74.60;;;;;;5077924;28;20090;-82
2021/04/19 08:55:12;;;;;;;35.65;31.77;;;11.20;74.80;;;;;;5080976;28;20519;-83
2021/04/19 08:57:48;;;;;;;32.70;29.30;;;11.50;74.50;;;;;;5081807;28;20244;-81
2021/04/19 09:00:28;;;;;;;34.03;29.30;;;12.00;73.30;;;;;;5075066;28;20448;-81
2021/04/19 09:03:04;;;;;;;31.70;28.40;;;11.50;72.70;;;;;;5076309;28;20456;-82
2021/04/19 09:05:40;;;;;;;34.93;28.20;;;12.20;72.80;;;;;;5077945;28;20460;-82
2021/04/19 09:08:18;;;;;;;35.03;31.50;;;12.30;72.30;;;;;;5080162;28;20442;-84
2021/04/19 09:11:06;;;;;;;34.53;31.13;;;12.60;71.50;;;;;;5084752;28;20483;-89
2021/04/19 09:13:38;;;;;;;34.90;31.60;;;12.80;71.10;;;;;;5103020;28;20436;-83
2021/04/19 09:20:03;;;;;;;30.43;27.23;;;13.10;69.80;;;;;;5044867;28;20543;-85
2021/04/19 09:22:39;;;;;;;31.80;28.30;;;13.40;69.60;;;;;;5079623;28;20459;-82
2021/04/19 09:25:14;;;;;;;32.53;26.63;;;13.80;69.60;;;;;;5076804;28;20441;-83
2021/04/19 09:27:53;;;;;;;33.40;28.43;;;14.10;68.10;;;;;;5077341;28;20934;-86
2021/04/19 09:30:37;;;;;;;31.08;28.08;;;13.90;68.50;;;;;;5085577;28;20442;-83
2021/04/19 09:33:29;;;;;;;30.75;27.95;;;13.20;67.40;;;;;;5067131;28;20454;-83
2021/04/19 09:36:32;;;;;;;29.13;26.33;;;13.90;67.80;;;;;;5059192;28;20229;-86
2021/04/19 09:39:43;;;;;;;27.37;24.30;;;15.10;66.70;;;;;;5075628;28;20468;-84
2021/04/19 09:42:25;;;;;;;27.63;24.67;;;15.00;64.00;;;;;;5082566;28;20462;-83
2021/04/19 09:44:59;;;;;;;27.20;24.13;;;14.80;65.30;;;;;;5068604;28;20442;-88
2021/04/19 09:57:14;;;;;;;26.70;24.07;;;14.60;62.80;;;;;;5062689;28;20211;-87
2021/04/19 10:00:39;;;;;;;27.67;25.08;;;14.80;62.00;;;;;;5070124;28;20441;-87
2021/04/19 10:03:15;;;;;;;26.10;23.40;;;15.10;63.10;;;;;;5041875;28;20195;-82
2021/04/19 10:05:49;;;;;;;28.77;23.33;;;14.60;62.80;;;;;;5076040;28;20443;-89
2021/04/19 10:11:21;;;;;;;26.37;23.53;;;14.60;62.40;;;;;;5075194;28;20244;-89
2021/04/19 10:14:02;;;;;;;25.70;23.17;;;14.40;63.20;;;;;;5070881;28;20460;-89
2021/04/19 10:20:26;;;;;;;25.13;22.47;;;14.70;63.10;;;;;;5081393;28;20445;-89
2021/04/19 10:42:32;;;;;;;26.57;23.77;;;11.90;68.40;;;;;;5089624;28;20460;-90
2021/04/19 10:51:52;;;;;;;25.63;22.83;;;11.50;68.90;;;;;;5089361;28;20822;-90
2021/04/19 10:54:58;;;;;;;26.03;22.00;;;11.20;69.90;;;;;;5104229;28;20828;-89
2021/04/19 10:57:58;;;;;;;26.00;23.30;;;10.80;71.10;;;;;;5090620;28;20456;-90
2021/04/19 11:11:42;;;;;;;35.27;28.70;;;9.40;99.00;;;;;;5005461;28;20474;-92
2021/04/19 11:21:39;;;;;;;40.67;30.27;;;8.70;99.90;;;;;;5082515;28;20475;-81
2021/04/19 11:24:16;;;;;;;34.20;28.23;;;8.70;99.90;;;;;;5088581;28;20544;-82
2021/04/19 11:26:50;;;;;;;31.73;27.53;;;8.70;99.90;;;;;;5091473;28;20455;-83
2021/04/19 11:29:40;;;;;;;32.03;24.63;;;8.80;99.90;;;;;;5093174;28;20788;-82
2021/04/19 11:32:34;;;;;;;34.10;23.80;;;8.70;99.90;;;;;;5086761;28;20485;-79
2021/04/19 11:35:10;;;;;;;32.37;25.20;;;8.70;99.90;;;;;;5094008;28;20452;-84
2021/04/19 11:37:46;;;;;;;32.50;24.87;;;8.70;99.90;;;;;;5090510;28;20494;-81
2021/04/19 11:40:41;;;;;;;33.63;26.10;;;8.60;99.90;;;;;;5082436;28;20497;-83
2021/04/19 11:43:29;;;;;;;27.80;21.20;;;8.90;99.90;;;;;;5076609;28;20448;-83
2021/04/19 11:46:12;;;;;;;22.73;18.57;;;9.10;99.90;;;;;;5072204;28;20471;-82
2021/04/19 11:48:49;;;;;;;26.03;20.33;;;9.30;95.20;;;;;;5079113;28;20585;-83
2021/04/19 11:51:25;;;;;;;20.90;16.13;;;9.30;95.10;;;;;;5072374;28;20468;-81
2021/04/19 11:54:06;;;;;;;16.90;13.67;;;9.80;95.30;;;;;;5081436;28;20498;-80
2021/04/19 11:56:42;;;;;;;14.67;13.10;;;10.10;84.20;;;;;;5076550;28;20449;-80
2021/04/19 11:59:16;;;;;;;14.00;12.50;;;10.80;88.80;;;;;;5074705;28;20498;-84
2021/04/19 12:01:52;;;;;;;14.57;11.80;;;11.20;82.20;;;;;;5089682;28;20454;-86
2021/04/19 12:04:27;;;;;;;12.00;10.80;;;11.80;83.50;;;;;;5085419;28;20465;-83
2021/04/19 12:07:02;;;;;;;9.43;7.80;;;12.20;80.10;;;;;;5086203;28;20451;-84
2021/04/19 12:09:38;;;;;;;8.03;7.10;;;12.20;75.70;;;;;;5082530;28;20445;-86
2021/04/19 12:12:14;;;;;;;6.87;6.27;;;12.00;78.20;;;;;;5089174;28;20457;-87
2021/04/19 12:14:55;;;;;;;8.10;7.30;;;12.50;76.10;;;;;;5094259;28;20438;-86
2021/04/19 12:17:30;;;;;;;7.67;6.73;;;12.60;75.00;;;;;;5096824;28;20222;-83
2021/04/19 12:20:05;;;;;;;6.13;5.63;;;13.00;73.60;;;;;;5092813;28;20453;-80
2021/04/19 12:22:42;;;;;;;6.33;5.67;;;13.10;72.50;;;;;;5083298;28;20445;-81
2021/04/19 12:25:18;;;;;;;4.77;4.37;;;12.90;72.90;;;;;;5079485;28;20932;-83
2021/04/19 12:27:53;;;;;;;5.07;4.63;;;12.80;71.80;;;;;;5073854;28;20456;-82
2021/04/19 12:30:28;;;;;;;5.87;5.40;;;12.80;71.50;;;;;;5076751;28;20472;-86
2021/04/19 12:33:04;;;;;;;6.47;5.97;;;12.90;71.10;;;;;;5069784;28;20445;-83
2021/04/19 12:35:40;;;;;;;5.50;5.03;;;12.80;72.00;;;;;;5077079;28;20452;-86
2021/04/19 12:38:21;;;;;;;7.13;5.67;;;12.80;72.10;;;;;;5073555;28;20454;-84
2021/04/19 12:40:57;;;;;;;6.10;5.60;;;13.50;71.40;;;;;;5074741;28;20501;-85
2021/04/19 12:43:32;;;;;;;6.63;6.13;;;13.10;69.10;;;;;;5068278;28;20529;-84
2021/04/19 12:46:07;;;;;;;9.83;8.83;;;13.50;70.80;;;;;;5074938;28;20441;-83
2021/04/19 12:48:42;;;;;;;13.70;12.40;;;13.70;70.20;;;;;;5071824;28;20973;-86
2021/04/19 12:51:17;;;;;;;12.55;11.45;;;13.20;70.00;;;;;;5082375;28;20446;-83
2021/04/19 12:53:52;;;;;;;12.17;11.10;;;13.20;71.20;;;;;;5082356;28;20195;-83
2021/04/19 12:56:29;;;;;;;14.13;12.83;;;12.80;70.70;;;;;;5070889;28;20475;-83
2021/04/19 12:59:04;;;;;;;11.87;10.70;;;12.70;71.10;;;;;;5080915;28;20947;-85
2021/04/19 13:01:39;;;;;;;13.40;12.00;;;12.40;71.00;;;;;;5079631;28;20889;-85
2021/04/19 13:04:16;;;;;;;14.10;12.40;;;12.70;69.80;;;;;;5084215;28;20453;-85
2021/04/19 13:06:52;;;;;;;12.70;11.40;;;12.40;70.60;;;;;;5077657;28;20484;-85
2021/04/19 13:09:34;;;;;;;13.70;12.30;;;12.50;71.00;;;;;;5077323;28;21180;-85
2021/04/19 13:15:23;;;;;;;15.73;14.17;;;13.50;69.10;;;;;;5066081;28;20245;-86
2021/04/19 13:17:58;;;;;;;13.40;12.10;;;14.00;68.30;;;;;;5078423;28;20752;-86
2021/04/19 13:20:38;;;;;;;13.53;12.00;;;14.70;68.00;;;;;;5080749;28;20452;-89
2021/04/19 13:28:35;;;;;;;14.97;13.57;;;14.90;65.30;;;;;;5075398;28;20503;-85
2021/04/19 13:31:08;;;;;;;14.20;12.90;;;13.90;65.20;;;;;;5070712;28;20495;-86
2021/04/19 13:33:43;;;;;;;16.05;14.55;;;14.40;65.80;;;;;;5074905;28;20457;-82
2021/04/19 13:36:19;;;;;;;15.53;14.10;;;14.10;64.70;;;;;;5081526;28;20186;-84
2021/04/19 13:38:56;;;;;;;17.13;14.03;;;13.20;65.40;;;;;;5073431;28;20456;-81
2021/04/19 13:41:31;;;;;;;14.60;13.30;;;12.60;67.20;;;;;;5072966;28;20428;-80
2021/04/19 13:44:07;;;;;;;16.40;14.70;;;12.50;68.00;;;;;;5078531;28;20461;-81
2021/04/19 13:46:43;;;;;;;21.20;17.80;;;12.00;69.70;;;;;;5080816;28;20436;-80
2021/04/19 13:49:18;;;;;;;24.73;17.93;;;10.60;90.70;;;;;;5077977;28;20936;-82
2021/04/19 13:51:53;;;;;;;23.93;20.00;;;9.60;99.90;;;;;;5070542;28;20471;-81
2021/04/19 13:54:28;;;;;;;20.50;17.87;;;9.40;99.90;;;;;;5081317;28;20844;-81
2021/04/19 13:57:02;;;;;;;12.57;10.87;;;9.80;99.90;;;;;;5060909;28;20467;-81
2021/04/19 13:59:38;;;;;;;8.70;7.80;;;9.70;99.90;;;;;;5077118;28;20989;-83
2021/04/19 14:02:32;;;;;;;10.70;8.70;;;9.60;99.90;;;;;;5076572;28;20468;-84
2021/04/19 14:05:08;;;;;;;8.50;7.70;;;9.90;92.30;;;;;;5069423;28;20474;-82
2021/04/19 14:07:43;;;;;;;9.33;8.43;;;10.20;84.80;;;;;;5067093;28;20525;-79
2021/04/19 14:10:19;;;;;;;9.73;8.73;;;10.60;87.50;;;;;;5067661;28;20476;-79
2021/04/19 14:12:55;;;;;;;11.30;9.67;;;11.00;87.70;;;;;;5082223;28;20526;-81
2021/04/19 14:15:31;;;;;;;10.17;9.10;;;11.20;86.20;;;;;;5064515;28;20448;-84
2021/04/19 14:18:08;;;;;;;10.40;9.40;;;11.40;82.30;;;;;;5077627;28;20460;-85
2021/04/19 14:26:29;;;;;;;9.20;7.83;;;12.20;79.30;;;;;;5074167;28;20449;-86
2021/04/19 14:29:13;;;;;;;8.67;7.43;;;12.50;78.50;;;;;;5076632;28;20453;-86
2021/04/19 14:31:55;;;;;;;9.93;8.90;;;12.60;78.50;;;;;;5081638;28;20473;-85
2021/04/19 14:34:32;;;;;;;9.07;8.17;;;12.90;80.50;;;;;;5064611;28;20437;-87
2021/04/19 14:37:07;;;;;;;8.70;7.80;;;12.90;76.30;;;;;;5083978;28;20534;-84
2021/04/19 14:40:02;;;;;;;9.43;8.52;;;12.60;71.40;;;;;;5078677;28;20476;-86
2021/04/19 14:45:32;;;;;;;12.30;11.00;;;13.20;72.20;;;;;;5065498;28;20442;-87
2021/04/19 14:48:32;;;;;;;10.43;9.33;;;13.80;73.50;;;;;;5079539;28;20488;-84
2021/04/19 14:51:18;;;;;;;12.60;11.40;;;14.50;72.80;;;;;;5079640;28;20465;-86
2021/04/19 14:53:53;;;;;;;12.00;10.90;;;14.60;70.00;;;;;;5072191;28;20441;-85
2021/04/19 14:56:34;;;;;;;14.27;12.98;;;14.30;67.80;;;;;;5080744;28;20466;-90
2021/04/19 15:02:40;;;;;;;14.00;12.70;;;13.90;70.70;;;;;;5077037;28;20510;-90
2021/04/19 15:05:36;;;;;;;14.80;13.17;;;13.90;70.00;;;;;;5078311;28;20467;-88
2021/04/19 15:11:23;;;;;;;19.08;14.85;;;13.00;68.80;;;;;;5081160;28;20447;-91
2021/04/19 15:13:59;;;;;;;14.68;13.27;;;12.50;71.60;;;;;;5086711;28;20442;-80
2021/04/19 15:19:46;;;;;;;12.70;11.40;;;12.50;69.70;;;;;;5081061;28;20463;-80
2021/04/19 15:25:08;;;;;;;12.60;11.30;;;12.30;68.90;;;;;;5106668;22;20508;-87
2021/04/19 15:27:43;;;;;;;14.30;12.80;;;12.20;68.30;;;;;;5068689;28;20432;-85
2021/04/19 15:33:19;;;;;;;15.97;14.10;;;12.10;69.60;;;;;;5065588;28;20196;-82
2021/04/19 15:36:05;;;;;;;14.20;12.70;;;11.80;70.00;;;;;;5053493;28;20457;-85
2021/04/19 15:42:10;;;;;;;14.33;12.83;;;11.60;69.70;;;;;;5037125;28;20537;-86
2021/04/19 15:44:47;;;;;;;15.60;14.00;;;11.70;71.20;;;;;;5076016;28;20505;-81
2021/04/19 15:47:28;;;;;;;14.75;13.25;;;11.60;71.00;;;;;;5072432;28;20464;-86
2021/04/19 15:50:03;;;;;;;15.73;14.07;;;11.60;70.70;;;;;;5063398;28;20195;-86
2021/04/19 15:52:38;;;;;;;14.90;13.30;;;11.80;71.10;;;;;;5069066;28;20894;-84
2021/04/19 15:55:18;;;;;;;16.47;13.07;;;11.80;69.10;;;;;;5070326;28;20532;-85
2021/04/19 15:58:02;;;;;;;15.20;13.60;;;12.00;70.40;;;;;;5065516;28;20438;-87
2021/04/19 16:00:35;;;;;;;16.27;14.67;;;12.00;69.10;;;;;;5047958;28;20442;-85
2021/04/19 16:03:15;;;;;;;14.73;13.23;;;12.20;69.60;;;;;;5061946;28;20492;-86
2021/04/19 16:05:50;;;;;;;16.73;15.03;;;12.20;70.40;;;;;;5060394;28;20477;-88
2021/04/19 16:08:32;;;;;;;16.10;14.20;;;12.40;68.00;;;;;;5056574;28;20446;-87
2021/04/19 16:11:10;;;;;;;17.40;15.13;;;12.20;68.60;;;;;;5057571;28;20466;-86
2021/04/19 16:13:49;;;;;;;13.90;12.60;;;12.50;69.00;;;;;;5062695;28;20465;-85
2021/04/19 16:19:28;;;;;;;15.10;13.67;;;11.90;68.10;;;;;;5057914;28;20516;-87
2021/04/19 16:22:35;;;;;;;14.70;13.10;;;11.80;69.90;;;;;;5063815;28;20948;-85
2021/04/19 16:25:12;;;;;;;14.50;13.00;;;11.80;70.70;;;;;;5044880;28;20504;-87
2021/04/19 16:27:49;;;;;;;13.80;12.40;;;11.60;71.10;;;;;;5053815;28;20466;-87
2021/04/19 16:33:13;;;;;;;15.43;12.73;;;11.40;71.90;;;;;;5060432;28;20454;-87
2021/04/19 16:35:57;;;;;;;13.87;12.30;;;11.50;71.80;;;;;;5060074;28;20920;-86
2021/04/19 16:38:40;;;;;;;12.67;11.37;;;11.40;71.30;;;;;;5058530;28;20457;-86
2021/04/19 16:41:22;;;;;;;13.03;11.70;;;11.30;71.40;;;;;;5070427;28;20442;-88
2021/04/19 16:43:58;;;;;;;14.07;11.83;;;11.40;71.80;;;;;;5079996;28;20461;-84
2021/04/19 16:46:33;;;;;;;12.73;11.17;;;11.40;71.60;;;;;;5074462;28;20437;-88
2021/04/19 16:49:28;;;;;;;13.63;12.23;;;11.30;71.00;;;;;;5076368;28;20464;-86
2021/04/19 16:52:03;;;;;;;13.17;11.93;;;11.20;71.80;;;;;;5057967;28;20462;-89
2021/04/19 16:57:40;;;;;;;13.30;11.97;;;11.00;71.70;;;;;;5058033;28;20450;-84
2021/04/19 17:00:16;;;;;;;12.30;11.00;;;11.10;72.60;;;;;;5063222;28;20442;-86
2021/04/19 17:02:54;;;;;;;11.97;10.87;;;11.00;72.30;;;;;;5069195;28;20445;-85
2021/04/19 17:05:35;;;;;;;13.40;11.60;;;11.00;72.00;;;;;;5062293;28;21102;-86
2021/04/19 17:08:11;;;;;;;12.67;11.40;;;11.00;72.90;;;;;;5059062;28;20516;-86
2021/04/19 17:10:51;;;;;;;12.17;10.97;;;10.90;72.80;;;;;;5059682;28;20592;-86
2021/04/19 17:13:49;;;;;;;13.60;12.20;;;10.80;72.90;;;;;;5058555;28;20479;-86
2021/04/19 17:16:24;;;;;;;13.03;11.73;;;10.80;73.60;;;;;;5061272;28;20458;-86
2021/04/19 17:19:08;;;;;;;12.73;11.43;;;10.70;74.00;;;;;;5060542;28;20468;-86
2021/04/19 17:21:51;;;;;;;16.70;13.60;;;10.70;73.80;;;;;;5060247;28;20443;-87
2021/04/19 17:24:28;;;;;;;13.47;12.07;;;10.80;74.80;;;;;;5066424;28;20489;-87
2021/04/19 17:27:03;;;;;;;13.87;11.50;;;10.80;73.80;;;;;;5062399;28;20457;-86
2021/04/19 17:29:38;;;;;;;12.67;11.23;;;10.80;73.90;;;;;;5051081;28;20513;-84
2021/04/19 17:32:14;;;;;;;13.70;12.30;;;11.00;74.30;;;;;;5057001;28;20483;-86
2021/04/19 17:34:49;;;;;;;14.60;13.10;;;10.90;75.10;;;;;;5051072;28;20457;-86
2021/04/19 17:37:24;;;;;;;15.07;13.27;;;11.00;74.70;;;;;;5056793;28;20970;-85
2021/04/19 17:40:04;;;;;;;16.73;14.60;;;10.80;75.00;;;;;;5056870;28;20477;-86
2021/04/19 17:42:45;;;;;;;17.07;14.60;;;10.50;75.60;;;;;;5052736;28;20454;-86
2021/04/19 17:48:17;;;;;;;13.70;12.13;;;10.30;76.10;;;;;;5069456;28;20533;-88
2021/04/19 17:50:54;;;;;;;13.17;11.87;;;10.20;75.50;;;;;;5063162;28;20456;-85